Comiso Airport "Vincenzo Magliocco" LICB

Flugplatz Daten

Name: Comiso Airport "Vincenzo Magliocco"

Ident: LICB

Lat: 36,99460102

Long: 14,60718155

Platzhöhe: 623 ft

IataCode: CIY

City: Comiso

Homepage: http://www.aeroportodicomiso.it/

Metar

2021/08/05 14:50
LICB 051450Z AUTO 27007KT 230V310 9999 NCD 32/20 Q1012

Taf

2021/08/05 12:00
TAF LICB 051100Z 0512/0612 25014KT 9999 SCT030
BECMG 0518/0520 VRB05KT
BECMG 0608/0610 25012KT
Gewünschte Webcam nicht vorhanden? Dann fügen Sie eine hinzu. Sie wird dann so schnell wie möglich freigeschaltet
Url: Title: